sensor_id;sensor_type;location;lat;lon;timestamp;P1;durP1;ratioP1;P2;durP2;ratioP2
22439;SDS011;11387;51.612;7.210;2024-02-28T00:00:37;134.38;;;53.67;;
22439;SDS011;11387;51.612;7.210;2024-02-28T00:03:00;70.50;;;27.88;;
22439;SDS011;11387;51.612;7.210;2024-02-28T00:05:24;83.00;;;34.50;;
22439;SDS011;11387;51.612;7.210;2024-02-28T00:07:47;62.78;;;26.95;;
22439;SDS011;11387;51.612;7.210;2024-02-28T00:10:11;65.45;;;26.00;;
22439;SDS011;11387;51.612;7.210;2024-02-28T00:12:48;64.50;;;26.73;;
22439;SDS011;11387;51.612;7.210;2024-02-28T00:15:12;68.90;;;27.23;;
22439;SDS011;11387;51.612;7.210;2024-02-28T00:17:39;64.80;;;26.20;;
22439;SDS011;11387;51.612;7.210;2024-02-28T00:20:03;64.47;;;27.30;;
22439;SDS011;11387;51.612;7.210;2024-02-28T00:22:27;76.55;;;31.33;;
22439;SDS011;11387;51.612;7.210;2024-02-28T00:24:51;77.90;;;31.52;;
22439;SDS011;11387;51.612;7.210;2024-02-28T00:27:14;63.38;;;26.20;;
22439;SDS011;11387;51.612;7.210;2024-02-28T00:29:38;63.15;;;27.33;;
22439;SDS011;11387;51.612;7.210;2024-02-28T00:32:01;56.85;;;25.08;;
22439;SDS011;11387;51.612;7.210;2024-02-28T00:34:26;60.08;;;25.55;;
22439;SDS011;11387;51.612;7.210;2024-02-28T00:36:50;66.53;;;27.23;;
22439;SDS011;11387;51.612;7.210;2024-02-28T00:39:17;76.57;;;28.25;;
22439;SDS011;11387;51.612;7.210;2024-02-28T00:41:41;66.55;;;28.27;;
22439;SDS011;11387;51.612;7.210;2024-02-28T00:44:04;69.22;;;27.52;;
22439;SDS011;11387;51.612;7.210;2024-02-28T00:46:28;77.15;;;30.13;;
22439;SDS011;11387;51.612;7.210;2024-02-28T00:48:52;72.90;;;28.35;;
22439;SDS011;11387;51.612;7.210;2024-02-28T00:51:17;80.05;;;30.10;;
22439;SDS011;11387;51.612;7.210;2024-02-28T00:53:40;66.50;;;27.20;;
22439;SDS011;11387;51.612;7.210;2024-02-28T00:56:05;82.65;;;32.47;;
22439;SDS011;11387;51.612;7.210;2024-02-28T00:58:28;70.18;;;28.88;;
22439;SDS011;11387;51.612;7.210;2024-02-28T01:00:52;65.15;;;27.55;;
22439;SDS011;11387;51.612;7.210;2024-02-28T01:03:16;73.88;;;30.08;;
22439;SDS011;11387;51.612;7.210;2024-02-28T01:05:41;65.25;;;25.48;;
22439;SDS011;11387;51.612;7.210;2024-02-28T01:08:07;64.55;;;26.90;;
22439;SDS011;11387;51.612;7.210;2024-02-28T01:10:31;66.47;;;27.17;;
22439;SDS011;11387;51.612;7.210;2024-02-28T01:12:55;65.20;;;26.00;;
22439;SDS011;11387;51.612;7.210;2024-02-28T01:15:18;62.30;;;26.58;;
22439;SDS011;11387;51.612;7.210;2024-02-28T01:17:42;66.20;;;25.38;;
22439;SDS011;11387;51.612;7.210;2024-02-28T01:20:06;61.72;;;25.13;;
22439;SDS011;11387;51.612;7.210;2024-02-28T01:22:30;66.57;;;27.05;;
22439;SDS011;11387;51.612;7.210;2024-02-28T01:24:55;63.33;;;25.25;;
22439;SDS011;11387;51.612;7.210;2024-02-28T01:27:19;63.63;;;26.58;;
22439;SDS011;11387;51.612;7.210;2024-02-28T01:29:42;78.03;;;26.70;;
22439;SDS011;11387;51.612;7.210;2024-02-28T01:32:06;65.45;;;27.13;;
22439;SDS011;11387;51.612;7.210;2024-02-28T01:34:30;75.13;;;29.30;;
22439;SDS011;11387;51.612;7.210;2024-02-28T01:36:53;72.05;;;27.92;;
22439;SDS011;11387;51.612;7.210;2024-02-28T01:39:17;65.72;;;27.05;;
22439;SDS011;11387;51.612;7.210;2024-02-28T01:41:49;71.05;;;28.85;;
22439;SDS011;11387;51.612;7.210;2024-02-28T01:44:15;65.90;;;27.75;;
22439;SDS011;11387;51.612;7.210;2024-02-28T01:46:40;73.30;;;28.00;;
22439;SDS011;11387;51.612;7.210;2024-02-28T01:49:03;70.20;;;27.92;;
22439;SDS011;11387;51.612;7.210;2024-02-28T01:51:27;68.05;;;27.58;;
22439;SDS011;11387;51.612;7.210;2024-02-28T01:53:51;67.75;;;26.60;;
22439;SDS011;11387;51.612;7.210;2024-02-28T01:56:17;66.20;;;26.60;;
22439;SDS011;11387;51.612;7.210;2024-02-28T01:58:43;146.68;;;31.45;;
22439;SDS011;11387;51.612;7.210;2024-02-28T02:01:09;98.83;;;33.67;;
22439;SDS011;11387;51.612;7.210;2024-02-28T02:03:33;253.38;;;39.63;;
22439;SDS011;11387;51.612;7.210;2024-02-28T02:05:57;194.38;;;36.42;;
22439;SDS011;11387;51.612;7.210;2024-02-28T02:08:21;162.65;;;38.58;;
22439;SDS011;11387;51.612;7.210;2024-02-28T02:10:46;111.57;;;34.80;;
22439;SDS011;11387;51.612;7.210;2024-02-28T02:13:10;120.85;;;33.55;;
22439;SDS011;11387;51.612;7.210;2024-02-28T02:15:35;199.95;;;39.40;;
22439;SDS011;11387;51.612;7.210;2024-02-28T02:17:58;166.30;;;39.17;;
22439;SDS011;11387;51.612;7.210;2024-02-28T02:20:22;138.00;;;36.47;;
22439;SDS011;11387;51.612;7.210;2024-02-28T02:22:50;139.88;;;37.63;;
22439;SDS011;11387;51.612;7.210;2024-02-28T02:25:14;140.20;;;36.13;;
22439;SDS011;11387;51.612;7.210;2024-02-28T02:27:38;239.43;;;40.63;;
22439;SDS011;11387;51.612;7.210;2024-02-28T02:30:01;166.10;;;36.53;;
22439;SDS011;11387;51.612;7.210;2024-02-28T02:32:26;148.70;;;37.50;;
22439;SDS011;11387;51.612;7.210;2024-02-28T02:34:51;129.63;;;36.85;;
22439;SDS011;11387;51.612;7.210;2024-02-28T02:37:14;103.18;;;34.70;;
22439;SDS011;11387;51.612;7.210;2024-02-28T02:39:39;108.88;;;34.03;;
22439;SDS011;11387;51.612;7.210;2024-02-28T02:42:03;109.00;;;35.78;;
22439;SDS011;11387;51.612;7.210;2024-02-28T02:44:26;92.72;;;33.47;;
22439;SDS011;11387;51.612;7.210;2024-02-28T02:46:49;95.15;;;35.28;;
22439;SDS011;11387;51.612;7.210;2024-02-28T02:49:13;99.35;;;34.47;;
22439;SDS011;11387;51.612;7.210;2024-02-28T02:51:36;102.80;;;35.67;;
22439;SDS011;11387;51.612;7.210;2024-02-28T02:54:00;96.38;;;35.45;;
22439;SDS011;11387;51.612;7.210;2024-02-28T02:56:25;93.60;;;34.90;;
22439;SDS011;11387;51.612;7.210;2024-02-28T02:58:48;91.90;;;32.80;;
22439;SDS011;11387;51.612;7.210;2024-02-28T03:01:12;96.40;;;35.80;;
22439;SDS011;11387;51.612;7.210;2024-02-28T03:03:35;84.18;;;33.63;;
22439;SDS011;11387;51.612;7.210;2024-02-28T03:05:59;88.20;;;34.33;;
22439;SDS011;11387;51.612;7.210;2024-02-28T03:08:23;94.15;;;36.70;;
22439;SDS011;11387;51.612;7.210;2024-02-28T03:10:46;100.78;;;35.30;;
22439;SDS011;11387;51.612;7.210;2024-02-28T03:13:11;92.78;;;35.25;;
22439;SDS011;11387;51.612;7.210;2024-02-28T03:15:34;93.00;;;34.70;;
22439;SDS011;11387;51.612;7.210;2024-02-28T03:17:58;80.38;;;34.70;;
22439;SDS011;11387;51.612;7.210;2024-02-28T03:20:21;78.13;;;33.22;;
22439;SDS011;11387;51.612;7.210;2024-02-28T03:22:45;80.55;;;32.80;;
22439;SDS011;11387;51.612;7.210;2024-02-28T03:25:09;89.38;;;33.47;;
22439;SDS011;11387;51.612;7.210;2024-02-28T03:27:33;80.10;;;33.53;;
22439;SDS011;11387;51.612;7.210;2024-02-28T03:29:57;95.18;;;34.88;;
22439;SDS011;11387;51.612;7.210;2024-02-28T03:32:21;104.40;;;36.78;;
22439;SDS011;11387;51.612;7.210;2024-02-28T03:34:44;105.03;;;37.85;;
22439;SDS011;11387;51.612;7.210;2024-02-28T03:37:08;114.00;;;36.75;;
22439;SDS011;11387;51.612;7.210;2024-02-28T03:39:31;115.00;;;40.65;;
22439;SDS011;11387;51.612;7.210;2024-02-28T03:41:55;122.25;;;41.53;;
22439;SDS011;11387;51.612;7.210;2024-02-28T03:44:18;139.52;;;42.85;;
22439;SDS011;11387;51.612;7.210;2024-02-28T03:46:44;160.07;;;46.35;;
22439;SDS011;11387;51.612;7.210;2024-02-28T03:49:08;147.82;;;40.63;;
22439;SDS011;11387;51.612;7.210;2024-02-28T03:51:31;132.95;;;39.28;;
22439;SDS011;11387;51.612;7.210;2024-02-28T03:53:55;140.50;;;40.70;;
22439;SDS011;11387;51.612;7.210;2024-02-28T03:56:22;129.88;;;41.10;;
22439;SDS011;11387;51.612;7.210;2024-02-28T03:58:47;133.80;;;43.35;;
22439;SDS011;11387;51.612;7.210;2024-02-28T04:01:11;125.05;;;39.20;;
22439;SDS011;11387;51.612;7.210;2024-02-28T04:03:37;164.25;;;43.65;;
22439;SDS011;11387;51.612;7.210;2024-02-28T04:06:00;132.43;;;42.47;;
22439;SDS011;11387;51.612;7.210;2024-02-28T04:08:24;160.00;;;44.95;;
22439;SDS011;11387;51.612;7.210;2024-02-28T04:10:48;129.38;;;41.75;;
22439;SDS011;11387;51.612;7.210;2024-02-28T04:13:12;154.82;;;42.58;;
22439;SDS011;11387;51.612;7.210;2024-02-28T04:15:36;173.32;;;44.60;;
22439;SDS011;11387;51.612;7.210;2024-02-28T04:18:00;158.48;;;46.65;;
22439;SDS011;11387;51.612;7.210;2024-02-28T04:20:25;165.23;;;43.97;;
22439;SDS011;11387;51.612;7.210;2024-02-28T04:22:48;160.95;;;43.28;;
22439;SDS011;11387;51.612;7.210;2024-02-28T04:25:12;157.93;;;44.78;;
22439;SDS011;11387;51.612;7.210;2024-02-28T04:27:35;164.32;;;41.78;;
22439;SDS011;11387;51.612;7.210;2024-02-28T04:29:59;210.18;;;46.83;;
22439;SDS011;11387;51.612;7.210;2024-02-28T04:32:23;203.50;;;47.67;;
22439;SDS011;11387;51.612;7.210;2024-02-28T04:34:47;163.48;;;46.65;;
22439;SDS011;11387;51.612;7.210;2024-02-28T04:37:12;178.60;;;48.90;;
22439;SDS011;11387;51.612;7.210;2024-02-28T04:39:35;219.65;;;47.75;;
22439;SDS011;11387;51.612;7.210;2024-02-28T04:41:58;341.15;;;54.45;;
22439;SDS011;11387;51.612;7.210;2024-02-28T04:44:22;276.35;;;54.05;;
22439;SDS011;11387;51.612;7.210;2024-02-28T04:46:45;286.42;;;55.60;;
22439;SDS011;11387;51.612;7.210;2024-02-28T04:49:09;230.55;;;57.65;;
22439;SDS011;11387;51.612;7.210;2024-02-28T04:51:32;283.63;;;55.05;;
22439;SDS011;11387;51.612;7.210;2024-02-28T04:53:57;213.07;;;53.97;;
22439;SDS011;11387;51.612;7.210;2024-02-28T04:56:21;381.38;;;59.95;;
22439;SDS011;11387;51.612;7.210;2024-02-28T04:58:45;306.98;;;60.53;;
22439;SDS011;11387;51.612;7.210;2024-02-28T05:01:09;378.35;;;66.20;;
22439;SDS011;11387;51.612;7.210;2024-02-28T05:03:32;314.48;;;62.08;;
22439;SDS011;11387;51.612;7.210;2024-02-28T05:05:56;292.02;;;62.08;;
22439;SDS011;11387;51.612;7.210;2024-02-28T05:08:20;329.05;;;63.28;;
22439;SDS011;11387;51.612;7.210;2024-02-28T05:10:45;334.40;;;64.70;;
22439;SDS011;11387;51.612;7.210;2024-02-28T05:13:08;268.23;;;63.10;;
22439;SDS011;11387;51.612;7.210;2024-02-28T05:15:32;239.63;;;61.85;;
22439;SDS011;11387;51.612;7.210;2024-02-28T05:17:56;415.20;;;67.25;;
22439;SDS011;11387;51.612;7.210;2024-02-28T05:20:19;458.13;;;75.82;;
22439;SDS011;11387;51.612;7.210;2024-02-28T05:22:43;288.20;;;66.10;;
22439;SDS011;11387;51.612;7.210;2024-02-28T05:25:06;267.77;;;64.95;;
22439;SDS011;11387;51.612;7.210;2024-02-28T05:27:31;282.40;;;68.78;;
22439;SDS011;11387;51.612;7.210;2024-02-28T05:29:55;340.30;;;69.78;;
22439;SDS011;11387;51.612;7.210;2024-02-28T05:32:18;416.48;;;75.70;;
22439;SDS011;11387;51.612;7.210;2024-02-28T05:34:43;352.77;;;68.63;;
22439;SDS011;11387;51.612;7.210;2024-02-28T05:37:06;271.38;;;65.00;;
22439;SDS011;11387;51.612;7.210;2024-02-28T05:39:30;324.65;;;69.85;;
22439;SDS011;11387;51.612;7.210;2024-02-28T05:42:14;462.75;;;74.80;;
22439;SDS011;11387;51.612;7.210;2024-02-28T05:44:45;328.88;;;73.65;;
22439;SDS011;11387;51.612;7.210;2024-02-28T05:47:08;333.73;;;71.80;;
22439;SDS011;11387;51.612;7.210;2024-02-28T05:49:32;303.67;;;69.88;;
22439;SDS011;11387;51.612;7.210;2024-02-28T05:51:55;278.15;;;69.72;;
22439;SDS011;11387;51.612;7.210;2024-02-28T05:54:19;270.20;;;72.53;;
22439;SDS011;11387;51.612;7.210;2024-02-28T05:56:43;287.67;;;68.50;;
22439;SDS011;11387;51.612;7.210;2024-02-28T05:59:06;261.35;;;70.75;;
22439;SDS011;11387;51.612;7.210;2024-02-28T06:01:31;280.75;;;73.07;;
22439;SDS011;11387;51.612;7.210;2024-02-28T06:03:55;270.42;;;69.80;;
22439;SDS011;11387;51.612;7.210;2024-02-28T06:06:18;305.85;;;72.13;;
22439;SDS011;11387;51.612;7.210;2024-02-28T06:08:42;267.20;;;73.22;;
22439;SDS011;11387;51.612;7.210;2024-02-28T06:11:06;256.20;;;68.93;;
22439;SDS011;11387;51.612;7.210;2024-02-28T06:13:30;313.58;;;73.53;;
22439;SDS011;11387;51.612;7.210;2024-02-28T06:15:53;273.27;;;69.95;;
22439;SDS011;11387;51.612;7.210;2024-02-28T06:18:18;284.35;;;69.53;;
22439;SDS011;11387;51.612;7.210;2024-02-28T06:20:42;267.30;;;72.22;;
22439;SDS011;11387;51.612;7.210;2024-02-28T06:23:05;268.42;;;70.18;;
22439;SDS011;11387;51.612;7.210;2024-02-28T06:25:37;270.85;;;72.53;;
22439;SDS011;11387;51.612;7.210;2024-02-28T06:28:01;269.80;;;72.93;;
22439;SDS011;11387;51.612;7.210;2024-02-28T06:30:28;259.48;;;70.10;;
22439;SDS011;11387;51.612;7.210;2024-02-28T06:32:51;259.00;;;72.07;;
22439;SDS011;11387;51.612;7.210;2024-02-28T06:35:17;262.73;;;73.32;;
22439;SDS011;11387;51.612;7.210;2024-02-28T06:37:40;252.82;;;69.35;;
22439;SDS011;11387;51.612;7.210;2024-02-28T06:40:06;215.65;;;66.90;;
22439;SDS011;11387;51.612;7.210;2024-02-28T06:42:31;217.35;;;63.53;;
22439;SDS011;11387;51.612;7.210;2024-02-28T06:44:55;211.70;;;63.88;;
22439;SDS011;11387;51.612;7.210;2024-02-28T06:47:18;226.45;;;64.13;;
22439;SDS011;11387;51.612;7.210;2024-02-28T06:49:42;227.57;;;67.78;;
22439;SDS011;11387;51.612;7.210;2024-02-28T06:52:07;189.18;;;62.70;;
22439;SDS011;11387;51.612;7.210;2024-02-28T06:54:31;185.30;;;58.83;;
22439;SDS011;11387;51.612;7.210;2024-02-28T06:56:55;203.70;;;61.28;;
22439;SDS011;11387;51.612;7.210;2024-02-28T06:59:17;187.43;;;59.78;;
22439;SDS011;11387;51.612;7.210;2024-02-28T07:01:41;174.63;;;59.55;;
22439;SDS011;11387;51.612;7.210;2024-02-28T07:04:04;168.65;;;58.72;;
22439;SDS011;11387;51.612;7.210;2024-02-28T07:06:28;168.70;;;56.33;;
22439;SDS011;11387;51.612;7.210;2024-02-28T07:08:53;155.70;;;54.22;;
22439;SDS011;11387;51.612;7.210;2024-02-28T07:11:17;161.52;;;58.65;;
22439;SDS011;11387;51.612;7.210;2024-02-28T07:13:40;152.57;;;53.20;;
22439;SDS011;11387;51.612;7.210;2024-02-28T07:16:03;147.38;;;55.33;;
22439;SDS011;11387;51.612;7.210;2024-02-28T07:18:27;145.00;;;54.10;;
22439;SDS011;11387;51.612;7.210;2024-02-28T07:20:51;146.50;;;55.63;;
22439;SDS011;11387;51.612;7.210;2024-02-28T07:23:15;142.52;;;53.08;;
22439;SDS011;11387;51.612;7.210;2024-02-28T07:25:40;145.43;;;52.38;;
22439;SDS011;11387;51.612;7.210;2024-02-28T07:28:06;139.17;;;53.37;;
22439;SDS011;11387;51.612;7.210;2024-02-28T07:30:30;144.10;;;54.42;;
22439;SDS011;11387;51.612;7.210;2024-02-28T07:32:53;145.95;;;52.38;;
22439;SDS011;11387;51.612;7.210;2024-02-28T07:35:17;139.65;;;51.45;;
22439;SDS011;11387;51.612;7.210;2024-02-28T07:37:41;119.72;;;50.85;;
22439;SDS011;11387;51.612;7.210;2024-02-28T07:40:05;129.48;;;49.78;;
22439;SDS011;11387;51.612;7.210;2024-02-28T07:42:32;133.27;;;52.20;;
22439;SDS011;11387;51.612;7.210;2024-02-28T07:44:58;130.90;;;51.00;;
22439;SDS011;11387;51.612;7.210;2024-02-28T07:47:21;127.30;;;49.20;;
22439;SDS011;11387;51.612;7.210;2024-02-28T07:49:45;123.85;;;48.45;;
22439;SDS011;11387;51.612;7.210;2024-02-28T07:52:08;116.63;;;46.13;;
22439;SDS011;11387;51.612;7.210;2024-02-28T07:54:32;120.05;;;46.50;;
22439;SDS011;11387;51.612;7.210;2024-02-28T07:56:55;117.20;;;47.13;;
22439;SDS011;11387;51.612;7.210;2024-02-28T07:59:21;116.32;;;46.55;;
22439;SDS011;11387;51.612;7.210;2024-02-28T08:01:45;116.22;;;43.65;;
22439;SDS011;11387;51.612;7.210;2024-02-28T08:04:12;111.13;;;47.60;;
22439;SDS011;11387;51.612;7.210;2024-02-28T08:06:36;119.07;;;46.90;;
22439;SDS011;11387;51.612;7.210;2024-02-28T08:08:59;105.28;;;45.33;;
22439;SDS011;11387;51.612;7.210;2024-02-28T08:11:23;111.80;;;45.08;;
22439;SDS011;11387;51.612;7.210;2024-02-28T08:13:47;105.15;;;45.05;;
22439;SDS011;11387;51.612;7.210;2024-02-28T08:16:12;105.70;;;46.08;;
22439;SDS011;11387;51.612;7.210;2024-02-28T08:18:36;110.22;;;45.55;;
22439;SDS011;11387;51.612;7.210;2024-02-28T08:21:00;104.80;;;42.25;;
22439;SDS011;11387;51.612;7.210;2024-02-28T08:23:24;94.63;;;41.78;;
22439;SDS011;11387;51.612;7.210;2024-02-28T08:25:48;94.75;;;43.03;;
22439;SDS011;11387;51.612;7.210;2024-02-28T08:28:12;97.88;;;41.90;;
22439;SDS011;11387;51.612;7.210;2024-02-28T08:30:35;98.35;;;41.90;;
22439;SDS011;11387;51.612;7.210;2024-02-28T08:33:01;86.88;;;40.17;;
22439;SDS011;11387;51.612;7.210;2024-02-28T08:35:24;87.13;;;39.85;;
22439;SDS011;11387;51.612;7.210;2024-02-28T08:37:49;89.03;;;39.45;;
22439;SDS011;11387;51.612;7.210;2024-02-28T08:40:12;85.40;;;37.28;;
22439;SDS011;11387;51.612;7.210;2024-02-28T08:42:36;87.90;;;39.50;;
22439;SDS011;11387;51.612;7.210;2024-02-28T08:45:00;81.50;;;36.15;;
22439;SDS011;11387;51.612;7.210;2024-02-28T08:47:25;82.40;;;38.25;;
22439;SDS011;11387;51.612;7.210;2024-02-28T08:49:51;85.25;;;39.58;;
22439;SDS011;11387;51.612;7.210;2024-02-28T08:52:15;86.55;;;38.22;;
22439;SDS011;11387;51.612;7.210;2024-02-28T08:54:39;90.88;;;39.13;;
22439;SDS011;11387;51.612;7.210;2024-02-28T08:57:02;90.72;;;40.78;;
22439;SDS011;11387;51.612;7.210;2024-02-28T08:59:26;84.35;;;40.03;;
22439;SDS011;11387;51.612;7.210;2024-02-28T09:01:50;95.85;;;42.78;;
22439;SDS011;11387;51.612;7.210;2024-02-28T09:04:13;91.28;;;42.17;;
22439;SDS011;11387;51.612;7.210;2024-02-28T09:06:38;94.45;;;41.58;;
22439;SDS011;11387;51.612;7.210;2024-02-28T09:09:02;91.13;;;40.15;;
22439;SDS011;11387;51.612;7.210;2024-02-28T09:11:26;88.03;;;40.83;;
22439;SDS011;11387;51.612;7.210;2024-02-28T09:13:50;81.22;;;37.13;;
22439;SDS011;11387;51.612;7.210;2024-02-28T09:16:13;95.75;;;42.67;;
22439;SDS011;11387;51.612;7.210;2024-02-28T09:18:37;91.53;;;41.92;;
22439;SDS011;11387;51.612;7.210;2024-02-28T09:21:00;98.07;;;43.65;;
22439;SDS011;11387;51.612;7.210;2024-02-28T09:23:25;93.65;;;43.13;;
22439;SDS011;11387;51.612;7.210;2024-02-28T09:25:49;87.80;;;39.70;;
22439;SDS011;11387;51.612;7.210;2024-02-28T09:28:13;83.88;;;38.45;;
22439;SDS011;11387;51.612;7.210;2024-02-28T09:30:38;79.20;;;36.88;;
22439;SDS011;11387;51.612;7.210;2024-02-28T09:33:13;85.80;;;39.78;;
22439;SDS011;11387;51.612;7.210;2024-02-28T09:35:37;77.45;;;35.92;;
22439;SDS011;11387;51.612;7.210;2024-02-28T09:38:01;80.50;;;36.05;;
22439;SDS011;11387;51.612;7.210;2024-02-28T09:40:26;67.07;;;32.08;;
22439;SDS011;11387;51.612;7.210;2024-02-28T09:42:51;68.30;;;33.42;;
22439;SDS011;11387;51.612;7.210;2024-02-28T09:45:16;70.43;;;34.60;;
22439;SDS011;11387;51.612;7.210;2024-02-28T09:47:40;64.57;;;32.40;;
22439;SDS011;11387;51.612;7.210;2024-02-28T09:50:07;80.30;;;36.35;;
22439;SDS011;11387;51.612;7.210;2024-02-28T09:52:29;82.93;;;37.55;;
22439;SDS011;11387;51.612;7.210;2024-02-28T09:54:53;75.03;;;35.15;;
22439;SDS011;11387;51.612;7.210;2024-02-28T09:57:18;79.03;;;35.60;;
22439;SDS011;11387;51.612;7.210;2024-02-28T09:59:42;69.05;;;34.75;;
22439;SDS011;11387;51.612;7.210;2024-02-28T10:02:16;73.68;;;35.25;;
22439;SDS011;11387;51.612;7.210;2024-02-28T10:04:42;70.70;;;35.03;;
22439;SDS011;11387;51.612;7.210;2024-02-28T10:07:12;70.82;;;35.55;;
22439;SDS011;11387;51.612;7.210;2024-02-28T10:09:36;73.38;;;37.60;;
22439;SDS011;11387;51.612;7.210;2024-02-28T10:12:01;73.55;;;37.38;;
22439;SDS011;11387;51.612;7.210;2024-02-28T10:14:27;69.72;;;34.00;;
22439;SDS011;11387;51.612;7.210;2024-02-28T10:16:50;70.93;;;35.35;;
22439;SDS011;11387;51.612;7.210;2024-02-28T10:19:15;68.95;;;35.97;;
22439;SDS011;11387;51.612;7.210;2024-02-28T10:21:39;68.28;;;36.45;;
22439;SDS011;11387;51.612;7.210;2024-02-28T10:24:03;72.32;;;38.28;;
22439;SDS011;11387;51.612;7.210;2024-02-28T10:26:28;65.88;;;35.88;;
22439;SDS011;11387;51.612;7.210;2024-02-28T10:28:56;66.43;;;36.42;;
22439;SDS011;11387;51.612;7.210;2024-02-28T10:31:22;62.72;;;33.00;;
22439;SDS011;11387;51.612;7.210;2024-02-28T10:33:45;67.28;;;35.42;;
22439;SDS011;11387;51.612;7.210;2024-02-28T10:36:09;72.65;;;35.83;;
22439;SDS011;11387;51.612;7.210;2024-02-28T10:38:34;69.47;;;35.17;;
22439;SDS011;11387;51.612;7.210;2024-02-28T10:40:59;68.53;;;33.33;;
22439;SDS011;11387;51.612;7.210;2024-02-28T10:43:24;56.20;;;30.92;;
22439;SDS011;11387;51.612;7.210;2024-02-28T10:45:51;61.45;;;31.77;;
22439;SDS011;11387;51.612;7.210;2024-02-28T10:48:37;53.95;;;27.58;;
22439;SDS011;11387;51.612;7.210;2024-02-28T10:51:01;61.95;;;30.27;;
22439;SDS011;11387;51.612;7.210;2024-02-28T10:53:29;63.15;;;29.65;;
22439;SDS011;11387;51.612;7.210;2024-02-28T10:56:00;62.15;;;31.15;;
22439;SDS011;11387;51.612;7.210;2024-02-28T11:00:55;59.47;;;28.13;;
22439;SDS011;11387;51.612;7.210;2024-02-28T11:03:19;51.70;;;26.23;;
22439;SDS011;11387;51.612;7.210;2024-02-28T11:05:47;56.70;;;28.02;;
22439;SDS011;11387;51.612;7.210;2024-02-28T11:08:10;53.50;;;26.58;;
22439;SDS011;11387;51.612;7.210;2024-02-28T11:10:34;51.30;;;25.17;;
22439;SDS011;11387;51.612;7.210;2024-02-28T11:12:58;49.72;;;25.00;;
22439;SDS011;11387;51.612;7.210;2024-02-28T11:15:24;52.45;;;25.60;;
22439;SDS011;11387;51.612;7.210;2024-02-28T11:20:13;59.22;;;27.23;;
22439;SDS011;11387;51.612;7.210;2024-02-28T11:22:40;56.88;;;29.30;;
22439;SDS011;11387;51.612;7.210;2024-02-28T11:25:04;54.70;;;29.17;;
22439;SDS011;11387;51.612;7.210;2024-02-28T11:27:28;52.30;;;28.02;;
22439;SDS011;11387;51.612;7.210;2024-02-28T11:29:52;62.28;;;29.38;;
22439;SDS011;11387;51.612;7.210;2024-02-28T11:32:16;53.38;;;29.52;;
22439;SDS011;11387;51.612;7.210;2024-02-28T11:34:40;51.67;;;28.38;;
22439;SDS011;11387;51.612;7.210;2024-02-28T11:37:06;51.70;;;27.15;;
22439;SDS011;11387;51.612;7.210;2024-02-28T11:39:34;49.13;;;26.80;;
22439;SDS011;11387;51.612;7.210;2024-02-28T11:42:08;61.10;;;28.60;;
22439;SDS011;11387;51.612;7.210;2024-02-28T11:44:33;57.55;;;29.80;;
22439;SDS011;11387;51.612;7.210;2024-02-28T11:46:56;53.40;;;28.52;;
22439;SDS011;11387;51.612;7.210;2024-02-28T11:49:20;54.15;;;29.50;;
22439;SDS011;11387;51.612;7.210;2024-02-28T11:51:44;55.03;;;29.23;;
22439;SDS011;11387;51.612;7.210;2024-02-28T11:54:09;49.30;;;27.20;;
22439;SDS011;11387;51.612;7.210;2024-02-28T11:56:35;51.03;;;27.38;;
22439;SDS011;11387;51.612;7.210;2024-02-28T11:58:59;45.45;;;24.27;;
22439;SDS011;11387;51.612;7.210;2024-02-28T12:01:42;47.92;;;27.13;;
22439;SDS011;11387;51.612;7.210;2024-02-28T12:04:09;49.05;;;28.38;;
22439;SDS011;11387;51.612;7.210;2024-02-28T12:06:34;50.70;;;29.50;;
22439;SDS011;11387;51.612;7.210;2024-02-28T12:09:00;55.33;;;29.10;;
22439;SDS011;11387;51.612;7.210;2024-02-28T12:11:24;51.90;;;29.02;;
22439;SDS011;11387;51.612;7.210;2024-02-28T12:13:55;49.30;;;27.60;;
22439;SDS011;11387;51.612;7.210;2024-02-28T12:16:21;48.58;;;26.20;;
22439;SDS011;11387;51.612;7.210;2024-02-28T12:18:47;37.95;;;23.42;;
22439;SDS011;11387;51.612;7.210;2024-02-28T12:21:11;39.83;;;23.83;;
22439;SDS011;11387;51.612;7.210;2024-02-28T12:23:36;38.05;;;23.85;;
22439;SDS011;11387;51.612;7.210;2024-02-28T12:26:00;40.70;;;24.60;;
22439;SDS011;11387;51.612;7.210;2024-02-28T12:28:25;36.55;;;23.35;;
22439;SDS011;11387;51.612;7.210;2024-02-28T12:30:52;39.10;;;22.65;;
22439;SDS011;11387;51.612;7.210;2024-02-28T12:33:19;33.40;;;22.02;;
22439;SDS011;11387;51.612;7.210;2024-02-28T12:35:47;33.47;;;22.38;;
22439;SDS011;11387;51.612;7.210;2024-02-28T12:38:11;30.50;;;19.23;;
22439;SDS011;11387;51.612;7.210;2024-02-28T12:40:37;36.45;;;21.02;;
22439;SDS011;11387;51.612;7.210;2024-02-28T12:43:00;34.08;;;21.48;;
22439;SDS011;11387;51.612;7.210;2024-02-28T12:45:24;32.10;;;20.50;;
22439;SDS011;11387;51.612;7.210;2024-02-28T12:47:50;36.00;;;22.00;;
22439;SDS011;11387;51.612;7.210;2024-02-28T12:50:15;39.15;;;22.02;;
22439;SDS011;11387;51.612;7.210;2024-02-28T12:52:38;36.08;;;22.83;;
22439;SDS011;11387;51.612;7.210;2024-02-28T12:55:02;34.67;;;22.83;;
22439;SDS011;11387;51.612;7.210;2024-02-28T12:57:26;35.58;;;21.83;;
22439;SDS011;11387;51.612;7.210;2024-02-28T12:59:49;34.20;;;21.80;;
22439;SDS011;11387;51.612;7.210;2024-02-28T13:02:13;34.90;;;21.50;;
22439;SDS011;11387;51.612;7.210;2024-02-28T13:04:39;35.22;;;20.58;;
22439;SDS011;11387;51.612;7.210;2024-02-28T13:07:03;36.83;;;22.13;;
22439;SDS011;11387;51.612;7.210;2024-02-28T13:09:28;39.67;;;23.80;;
22439;SDS011;11387;51.612;7.210;2024-02-28T13:11:51;39.05;;;22.83;;
22439;SDS011;11387;51.612;7.210;2024-02-28T13:14:15;36.35;;;21.77;;
22439;SDS011;11387;51.612;7.210;2024-02-28T13:16:39;36.50;;;21.80;;
22439;SDS011;11387;51.612;7.210;2024-02-28T13:19:03;34.95;;;19.65;;
22439;SDS011;11387;51.612;7.210;2024-02-28T13:21:31;37.88;;;20.30;;
22439;SDS011;11387;51.612;7.210;2024-02-28T13:23:56;35.42;;;20.08;;
22439;SDS011;11387;51.612;7.210;2024-02-28T13:26:21;35.80;;;19.55;;
22439;SDS011;11387;51.612;7.210;2024-02-28T13:28:45;34.72;;;20.20;;
22439;SDS011;11387;51.612;7.210;2024-02-28T13:31:14;34.95;;;18.05;;
22439;SDS011;11387;51.612;7.210;2024-02-28T13:33:39;31.77;;;18.98;;
22439;SDS011;11387;51.612;7.210;2024-02-28T13:36:05;33.17;;;17.67;;
22439;SDS011;11387;51.612;7.210;2024-02-28T13:38:33;38.58;;;19.52;;
22439;SDS011;11387;51.612;7.210;2024-02-28T13:40:57;36.40;;;19.23;;
22439;SDS011;11387;51.612;7.210;2024-02-28T13:43:21;35.35;;;19.75;;
22439;SDS011;11387;51.612;7.210;2024-02-28T13:45:46;37.00;;;19.10;;
22439;SDS011;11387;51.612;7.210;2024-02-28T13:48:21;33.72;;;19.23;;
22439;SDS011;11387;51.612;7.210;2024-02-28T13:50:47;35.65;;;19.33;;
22439;SDS011;11387;51.612;7.210;2024-02-28T13:53:11;34.08;;;19.23;;
22439;SDS011;11387;51.612;7.210;2024-02-28T13:55:37;34.67;;;19.23;;
22439;SDS011;11387;51.612;7.210;2024-02-28T13:58:04;30.75;;;18.45;;
22439;SDS011;11387;51.612;7.210;2024-02-28T14:00:27;33.53;;;20.67;;
22439;SDS011;11387;51.612;7.210;2024-02-28T14:02:51;36.15;;;22.45;;
22439;SDS011;11387;51.612;7.210;2024-02-28T14:05:15;36.28;;;20.15;;